Time;durP1;ratioP1;P1;durP2;ratioP2;P2;SDS_P1;SDS_P2;PMS_P1;PMS_P2;Temp;Humidity;BMP_temperature;BMP_pressure;BME280_temperature;BME280_humidity;BME280_pressure;Samples;Min_cycle;Max_cycle;Signal;HPM_P1;HPM_P2
2023/07/28 00:01:33;;;;;;;7.43;5.70;;;;;;;17.38;72.19;95587.97;5052301;28;20205;-70
2023/07/28 00:03:59;;;;;;;6.00;5.47;;;;;;;17.35;72.41;95594.38;5052217;28;20413;-70
2023/07/28 00:06:24;;;;;;;6.47;5.87;;;;;;;17.28;72.52;95588.72;5052209;28;20198;-68
2023/07/28 00:08:49;;;;;;;7.03;6.37;;;;;;;17.32;72.56;95584.03;5051861;28;20186;-69
2023/07/28 00:11:15;;;;;;;8.63;6.47;;;;;;;17.29;72.69;95577.16;5052329;28;20167;-69
2023/07/28 00:13:42;;;;;;;8.10;5.97;;;;;;;17.30;72.79;95581.50;5052074;28;20221;-68
2023/07/28 00:16:07;;;;;;;14.10;6.53;;;;;;;17.23;72.92;95582.13;5051981;28;21342;-69
2023/07/28 00:18:33;;;;;;;7.77;5.60;;;;;;;17.20;72.85;95571.81;5052266;28;20429;-69
2023/07/28 00:20:58;;;;;;;6.73;5.80;;;;;;;17.13;72.79;95580.25;5052234;28;20635;-69
2023/07/28 00:23:24;;;;;;;6.30;5.70;;;;;;;17.11;73.20;95584.00;5052115;28;20253;-70
2023/07/28 00:25:50;;;;;;;10.10;6.90;;;;;;;17.07;73.20;95577.25;5057663;28;20186;-70
2023/07/28 00:28:15;;;;;;;6.80;6.10;;;;;;;17.14;73.20;95579.28;5056600;28;20484;-70
2023/07/28 00:30:41;;;;;;;7.17;6.47;;;;;;;17.13;73.08;95585.56;5045687;28;20182;-71
2023/07/28 00:33:06;;;;;;;7.57;6.47;;;;;;;17.12;72.93;95583.03;5034512;28;20183;-70
2023/07/28 00:35:32;;;;;;;6.90;6.20;;;;;;;17.08;72.65;95582.44;5032239;28;20302;-70
2023/07/28 00:37:57;;;;;;;7.10;5.80;;;;;;;17.08;73.19;95586.91;5032204;28;20190;-67
2023/07/28 00:40:23;;;;;;;9.30;6.80;;;;;;;17.05;73.15;95582.69;5032042;28;20358;-69
2023/07/28 00:42:49;;;;;;;8.80;6.57;;;;;;;17.02;73.29;95582.09;5032626;28;20183;-70
2023/07/28 00:45:14;;;;;;;7.57;6.77;;;;;;;17.04;73.41;95581.00;5032000;28;20193;-69
2023/07/28 00:47:41;;;;;;;6.87;6.20;;;;;;;17.05;73.18;95580.03;5031625;28;20406;-68
2023/07/28 00:50:08;;;;;;;8.40;6.60;;;;;;;17.10;73.02;95580.53;5031229;28;20172;-70
2023/07/28 00:52:34;;;;;;;8.40;6.70;;;;;;;17.00;73.31;95582.22;5031463;28;20907;-69
2023/07/28 00:55:00;;;;;;;9.47;6.50;;;;;;;17.04;73.24;95583.66;5031253;28;20434;-70
2023/07/28 00:57:26;;;;;;;10.13;7.20;;;;;;;16.92;73.45;95576.72;5031070;28;20183;-70
2023/07/28 00:59:53;;;;;;;11.23;7.17;;;;;;;16.85;73.98;95579.03;5029734;28;20414;-69
2023/07/28 01:02:19;;;;;;;10.23;7.17;;;;;;;16.85;73.70;95575.56;5031103;28;20764;-68
2023/07/28 01:04:45;;;;;;;9.70;6.87;;;;;;;16.80;74.27;95583.03;5030686;28;20433;-70
2023/07/28 01:07:17;;;;;;;7.17;6.47;;;;;;;16.90;73.77;95583.97;5031007;28;20892;-69
2023/07/28 01:10:01;;;;;;;9.37;7.20;;;;;;;16.84;73.90;95584.44;5030582;28;20199;-69
2023/07/28 01:12:26;;;;;;;6.53;5.93;;;;;;;16.81;74.13;95590.00;5031066;28;20895;-70
2023/07/28 01:14:51;;;;;;;8.73;7.10;;;;;;;16.79;73.87;95598.06;5030562;28;20430;-69
2023/07/28 01:17:18;;;;;;;8.07;6.47;;;;;;;16.81;74.06;95595.31;5030679;28;20171;-69
2023/07/28 01:19:43;;;;;;;7.97;7.20;;;;;;;16.77;74.08;95596.50;5030249;28;20197;-70
2023/07/28 01:22:50;;;;;;;12.30;6.90;;;;;;;16.76;73.95;95606.25;5030591;28;20454;-69
2023/07/28 01:25:29;;;;;;;6.77;6.17;;;;;;;16.78;73.81;95606.13;5007923;28;20203;-69
2023/07/28 01:27:56;;;;;;;8.00;7.17;;;;;;;16.75;74.10;95609.00;5027779;28;20418;-69
2023/07/28 01:30:25;;;;;;;7.77;6.30;;;;;;;16.72;73.83;95596.88;5039176;28;20421;-69
2023/07/28 01:32:51;;;;;;;8.47;7.00;;;;;;;16.69;74.25;95597.13;5050343;28;20405;-69
2023/07/28 01:35:16;;;;;;;11.37;6.93;;;;;;;16.73;74.22;95594.09;5050332;28;20434;-69
2023/07/28 01:37:41;;;;;;;14.30;7.23;;;;;;;16.74;74.18;95594.94;5050184;28;20194;-70
2023/07/28 01:40:08;;;;;;;9.17;6.97;;;;;;;16.73;74.09;95601.22;5049786;28;20178;-70
2023/07/28 01:42:33;;;;;;;6.80;6.10;;;;;;;16.75;74.15;95593.13;5050125;28;20214;-69
2023/07/28 01:44:58;;;;;;;7.07;6.00;;;;;;;16.70;74.31;95589.06;5050186;28;20425;-69
2023/07/28 01:47:25;;;;;;;6.93;5.73;;;;;;;16.77;74.15;95588.53;5049724;28;20178;-68
2023/07/28 01:49:50;;;;;;;7.80;6.53;;;;;;;16.74;73.84;95589.63;5049614;28;20250;-69
2023/07/28 01:52:16;;;;;;;8.13;7.20;;;;;;;16.69;74.19;95581.22;5049916;28;20497;-70
2023/07/28 01:54:41;;;;;;;8.10;6.40;;;;;;;16.68;74.34;95576.91;5049904;28;20695;-70
2023/07/28 01:57:06;;;;;;;11.30;6.57;;;;;;;16.73;73.98;95572.91;5049892;28;20612;-69
2023/07/28 01:59:32;;;;;;;9.50;6.90;;;;;;;16.79;73.45;95576.03;5049642;28;20193;-69
2023/07/28 02:01:58;;;;;;;9.67;6.50;;;;;;;16.80;73.49;95578.56;5049571;28;20279;-70
2023/07/28 02:04:23;;;;;;;10.10;6.30;;;;;;;16.86;73.61;95572.75;5054509;28;20195;-68
2023/07/28 02:06:49;;;;;;;7.60;6.87;;;;;;;16.82;73.57;95573.13;5056412;28;20402;-69
2023/07/28 02:09:14;;;;;;;11.80;6.03;;;;;;;16.86;73.59;95577.22;5049459;28;20163;-70
2023/07/28 02:11:39;;;;;;;7.80;5.83;;;;;;;16.89;73.01;95567.22;5049589;28;21206;-69
2023/07/28 02:14:05;;;;;;;6.80;6.10;;;;;;;16.81;73.43;95563.50;5049432;28;20172;-70
2023/07/28 02:16:32;;;;;;;8.77;6.30;;;;;;;16.80;73.58;95565.34;5049394;28;20279;-69
2023/07/28 02:18:57;;;;;;;10.80;6.20;;;;;;;16.69;74.14;95567.97;5048949;28;20187;-69
2023/07/28 02:21:22;;;;;;;7.57;5.93;;;;;;;16.68;74.07;95559.19;5049149;28;20478;-68
2023/07/28 02:23:49;;;;;;;6.70;6.00;;;;;;;16.67;74.11;95559.31;5049366;28;20249;-69
2023/07/28 02:26:14;;;;;;;12.30;6.93;;;;;;;16.62;74.14;95556.19;5049454;28;20229;-69
2023/07/28 02:28:39;;;;;;;13.87;7.17;;;;;;;16.63;74.14;95555.22;5049169;28;20898;-70
2023/07/28 02:31:05;;;;;;;9.63;7.13;;;;;;;16.55;74.31;95558.50;5033915;28;20194;-70
2023/07/28 02:33:31;;;;;;;8.07;7.07;;;;;;;16.44;74.27;95554.09;5029447;28;20811;-70
2023/07/28 02:35:56;;;;;;;12.00;8.23;;;;;;;16.39;74.27;95572.13;5029197;28;20195;-70
2023/07/28 02:38:22;;;;;;;9.07;8.00;;;;;;;16.37;74.70;95559.97;5029549;28;20961;-70
2023/07/28 02:40:47;;;;;;;8.50;7.00;;;;;;;16.29;74.36;95564.09;5030061;28;20372;-69
2023/07/28 02:43:14;;;;;;;8.30;7.17;;;;;;;16.34;74.48;95557.59;5029966;28;20258;-73
2023/07/28 02:45:39;;;;;;;7.97;7.27;;;;;;;16.45;74.17;95554.94;5029892;28;20194;-69
2023/07/28 02:48:05;;;;;;;7.73;6.93;;;;;;;16.38;74.34;95564.34;5029569;28;20410;-68
2023/07/28 02:50:30;;;;;;;6.97;6.30;;;;;;;16.34;74.33;95565.53;5029400;28;20247;-68
2023/07/28 02:52:56;;;;;;;7.80;7.10;;;;;;;16.32;74.67;95570.09;5030198;28;20225;-70
2023/07/28 02:55:21;;;;;;;10.57;7.03;;;;;;;16.35;74.28;95572.53;5029552;28;20712;-68
2023/07/28 02:57:46;;;;;;;9.80;8.00;;;;;;;16.34;74.39;95578.78;5028976;28;20339;-67
2023/07/28 03:00:12;;;;;;;12.07;7.60;;;;;;;16.31;74.58;95582.50;5028413;28;20262;-71
2023/07/28 03:02:38;;;;;;;11.77;8.00;;;;;;;16.25;74.44;95588.28;5028789;28;20682;-70
2023/07/28 03:05:04;;;;;;;11.87;8.03;;;;;;;16.32;74.31;95586.00;5027853;28;20198;-71
2023/07/28 03:07:30;;;;;;;9.43;7.17;;;;;;;16.35;74.47;95593.72;5028610;28;20218;-68
2023/07/28 03:09:55;;;;;;;7.57;6.87;;;;;;;16.38;74.32;95590.81;5028281;28;20407;-68
2023/07/28 03:12:21;;;;;;;8.07;7.27;;;;;;;16.34;74.08;95598.13;5028393;28;20481;-69
2023/07/28 03:14:46;;;;;;;8.23;7.43;;;;;;;16.36;74.06;95595.38;5028470;28;20257;-71
2023/07/28 03:17:12;;;;;;;11.00;7.10;;;;;;;16.26;74.79;95601.41;5028593;28;20273;-70
2023/07/28 03:19:37;;;;;;;13.70;7.30;;;;;;;16.28;74.30;95594.19;5028238;28;20180;-65
2023/07/28 03:22:02;;;;;;;12.87;7.60;;;;;;;16.34;74.35;95595.50;5028514;28;20227;-70
2023/07/28 03:24:28;;;;;;;11.27;7.00;;;;;;;16.30;74.46;95602.03;5030807;28;20226;-69
2023/07/28 03:26:53;;;;;;;9.60;6.80;;;;;;;16.27;74.62;95611.00;5033348;28;20517;-70
2023/07/28 03:29:19;;;;;;;8.50;6.10;;;;;;;16.19;74.59;95605.50;5030339;28;20171;-69
2023/07/28 03:31:44;;;;;;;7.53;6.53;;;;;;;16.17;75.29;95611.88;5050544;28;20171;-68
2023/07/28 03:34:10;;;;;;;13.40;6.97;;;;;;;16.16;74.49;95618.13;5048600;28;20409;-67
2023/07/28 03:36:35;;;;;;;10.43;8.80;;;;;;;16.20;74.35;95620.41;5048004;28;20167;-68
2023/07/28 03:39:00;;;;;;;33.93;11.10;;;;;;;16.21;74.73;95610.69;5047649;28;20631;-68
2023/07/28 03:41:26;;;;;;;21.97;8.63;;;;;;;16.26;74.24;95617.28;5048404;28;20195;-72
2023/07/28 03:43:51;;;;;;;11.97;7.10;;;;;;;16.23;74.29;95614.91;5048540;28;20171;-68
2023/07/28 03:46:17;;;;;;;28.13;10.20;;;;;;;16.21;74.77;95616.81;5048109;28;21064;-68
2023/07/28 03:48:42;;;;;;;19.73;8.20;;;;;;;16.22;74.54;95610.53;5048078;28;20178;-68
2023/07/28 03:51:07;;;;;;;18.43;9.30;;;;;;;16.20;74.82;95617.75;5048557;28;20534;-73
2023/07/28 03:53:35;;;;;;;13.97;8.30;;;;;;;16.17;74.55;95620.66;5048067;28;20194;-70
2023/07/28 03:56:00;;;;;;;12.00;7.70;;;;;;;16.20;74.37;95611.63;5047892;28;20191;-68
2023/07/28 03:58:26;;;;;;;10.17;6.80;;;;;;;16.17;74.48;95611.88;5046429;28;20532;-68
2023/07/28 04:00:54;;;;;;;9.13;7.80;;;;;;;16.16;74.89;95612.81;5047605;28;20197;-69
2023/07/28 04:03:20;;;;;;;11.70;8.93;;;;;;;16.26;74.29;95619.94;5047757;28;20177;-70
2023/07/28 04:05:45;;;;;;;12.80;9.20;;;;;;;16.24;74.23;95613.91;5047155;28;20433;-68
2023/07/28 04:08:11;;;;;;;12.77;7.50;;;;;;;16.27;74.49;95618.97;5047967;28;20178;-69
2023/07/28 04:10:36;;;;;;;20.43;8.70;;;;;;;16.19;74.97;95626.69;5031768;28;20172;-68
2023/07/28 04:13:02;;;;;;;14.77;7.77;;;;;;;16.19;74.65;95625.84;5035439;28;20175;-68
2023/07/28 04:15:27;;;;;;;12.97;7.57;;;;;;;16.19;74.59;95642.56;5040408;28;20200;-68
2023/07/28 04:17:52;;;;;;;17.70;8.87;;;;;;;16.24;74.54;95634.25;5033655;28;20194;-69
2023/07/28 04:20:18;;;;;;;10.93;7.97;;;;;;;16.23;74.10;95641.38;5049856;28;20678;-72
2023/07/28 04:22:43;;;;;;;20.43;9.00;;;;;;;16.17;74.79;95635.72;5051658;28;20198;-70
2023/07/28 04:25:08;;;;;;;14.90;9.47;;;;;;;16.22;74.25;95647.59;5039978;28;20195;-69
2023/07/28 04:27:34;;;;;;;17.77;10.30;;;;;;;16.22;74.40;95646.78;5038520;28;20167;-69
2023/07/28 04:29:59;;;;;;;17.77;8.50;;;;;;;16.18;74.32;95646.19;5049819;28;20175;-67
2023/07/28 04:32:25;;;;;;;16.03;9.10;;;;;;;16.22;74.59;95637.03;5039586;28;20234;-74
2023/07/28 04:34:51;;;;;;;14.37;10.03;;;;;;;16.28;74.15;95631.25;5037124;28;20223;-71
2023/07/28 04:37:17;;;;;;;11.40;8.27;;;;;;;16.66;72.67;95630.00;5045650;28;20457;-71
2023/07/28 04:39:42;;;;;;;11.50;8.20;;;;;;;17.07;71.02;95633.78;5047013;28;20350;-71
2023/07/28 04:42:08;;;;;;;20.13;9.17;;;;;;;17.34;70.11;95627.16;5050727;28;20205;-71
2023/07/28 04:44:34;;;;;;;12.03;7.90;;;;;;;17.65;68.59;95627.25;5039692;28;20194;-69
2023/07/28 04:46:59;;;;;;;17.07;10.57;;;;;;;17.74;68.15;95619.34;5044289;28;20511;-67
2023/07/28 04:49:25;;;;;;;18.67;9.73;;;;;;;17.99;67.32;95625.25;5041906;28;20226;-69
2023/07/28 04:51:50;;;;;;;17.07;8.90;;;;;;;18.16;66.97;95627.25;5032142;28;20222;-68
2023/07/28 04:54:15;;;;;;;23.13;9.07;;;;;;;18.38;65.99;95628.09;5043226;28;20265;-70
2023/07/28 04:56:41;;;;;;;15.67;7.80;;;;;;;18.40;65.69;95632.28;5046663;28;20868;-67
2023/07/28 04:59:07;;;;;;;14.57;8.33;;;;;;;18.49;65.44;95633.28;5040239;28;20175;-72
2023/07/28 05:01:33;;;;;;;11.67;7.47;;;;;;;18.56;65.25;95631.75;5039623;28;20203;-72
2023/07/28 05:03:59;;;;;;;10.20;7.67;;;;;;;18.76;64.77;95624.72;5040979;28;20433;-68
2023/07/28 05:06:24;;;;;;;9.73;8.40;;;;;;;18.74;64.52;95626.63;5045583;28;20426;-70
2023/07/28 05:08:49;;;;;;;9.70;7.70;;;;;;;18.91;63.93;95630.47;5047670;28;20182;-70
2023/07/28 05:11:15;;;;;;;23.40;9.13;;;;;;;19.06;63.61;95630.91;5048365;28;20187;-68
2023/07/28 05:13:40;;;;;;;8.53;7.53;;;;;;;19.14;63.09;95628.41;5037460;28;20233;-69
2023/07/28 05:16:05;;;;;;;8.77;7.40;;;;;;;19.25;62.71;95630.94;5030331;28;20194;-68
2023/07/28 05:18:31;;;;;;;11.67;7.60;;;;;;;19.41;62.47;95624.22;5042026;28;20676;-70
2023/07/28 05:20:56;;;;;;;22.67;8.60;;;;;;;19.46;62.13;95630.81;5031324;28;20192;-68
2023/07/28 05:23:22;;;;;;;13.03;8.20;;;;;;;19.54;61.90;95622.13;5037131;28;20175;-68
2023/07/28 05:25:47;;;;;;;10.83;7.13;;;;;;;19.66;61.79;95626.28;5035649;28;20876;-67
2023/07/28 05:28:12;;;;;;;15.67;6.80;;;;;;;19.82;61.15;95635.56;5035006;28;20377;-71
2023/07/28 05:30:38;;;;;;;14.50;7.87;;;;;;;20.28;60.00;95624.06;5037315;28;20179;-72
2023/07/28 05:33:03;;;;;;;7.80;7.00;;;;;;;20.62;58.67;95626.22;5035915;28;20179;-70
2023/07/28 05:35:29;;;;;;;38.07;7.83;;;;;;;20.80;58.26;95626.22;5043582;28;20228;-71
2023/07/28 05:37:54;;;;;;;13.10;6.10;;;;;;;21.13;57.00;95627.41;5040594;28;20175;-72
2023/07/28 05:40:21;;;;;;;12.10;6.50;;;;;;;21.06;57.75;95633.53;5037167;28;20637;-71
2023/07/28 05:42:46;;;;;;;8.03;6.77;;;;;;;21.19;57.67;95619.78;5030062;28;20270;-69
2023/07/28 05:45:12;;;;;;;10.03;6.70;;;;;;;21.28;57.10;95626.88;5037063;28;20552;-68
2023/07/28 05:47:37;;;;;;;14.23;6.97;;;;;;;21.39;56.56;95617.84;5028901;28;20210;-71
2023/07/28 05:50:04;;;;;;;11.33;6.57;;;;;;;20.79;58.17;95621.91;5035594;28;20641;-73
2023/07/28 05:52:29;;;;;;;12.07;6.50;;;;;;;20.02;60.86;95634.53;5044138;28;20171;-66
2023/07/28 05:54:55;;;;;;;7.63;6.30;;;;;;;19.51;62.91;95630.34;5042416;28;20988;-73
2023/07/28 05:57:20;;;;;;;8.93;7.20;;;;;;;19.27;64.37;95637.94;5031700;28;20547;-73
2023/07/28 05:59:46;;;;;;;13.40;7.17;;;;;;;19.15;64.49;95640.72;5037486;28;20193;-74
2023/07/28 06:02:12;;;;;;;8.20;6.27;;;;;;;18.99;64.92;95645.75;5040354;28;20553;-70
2023/07/28 06:04:37;;;;;;;13.40;6.23;;;;;;;18.97;65.64;95647.72;5044573;28;20498;-75
2023/07/28 06:07:02;;;;;;;10.27;6.27;;;;;;;18.90;66.02;95643.91;5043107;28;20229;-68
2023/07/28 06:09:28;;;;;;;6.43;5.83;;;;;;;19.21;65.34;95645.50;5037488;28;20187;-72
2023/07/28 06:11:53;;;;;;;10.57;6.60;;;;;;;19.96;63.02;95648.44;5038621;28;20167;-73
2023/07/28 06:14:19;;;;;;;8.07;5.63;;;;;;;19.80;63.49;95650.84;5042502;28;20206;-71
2023/07/28 06:16:44;;;;;;;10.07;6.27;;;;;;;19.52;64.40;95653.34;5036159;28;20262;-71
2023/07/28 06:19:09;;;;;;;11.13;5.43;;;;;;;19.54;64.48;95647.91;5037878;28;20183;-71
2023/07/28 06:21:35;;;;;;;8.53;5.67;;;;;;;19.50;64.91;95652.63;5044551;28;20229;-70
2023/07/28 06:24:00;;;;;;;14.93;8.20;;;;;;;19.26;66.02;95650.41;5028078;28;20171;-70
2023/07/28 06:26:26;;;;;;;6.67;5.27;;;;;;;19.30;65.81;95653.59;5035292;28;20175;-71
2023/07/28 06:28:51;;;;;;;7.33;5.43;;;;;;;19.30;65.69;95661.59;5035163;28;20190;-72
2023/07/28 06:31:18;;;;;;;14.67;6.20;;;;;;;19.16;66.43;95654.88;5041071;28;20183;-74
2023/07/28 06:33:43;;;;;;;9.70;5.80;;;;;;;19.24;66.03;95660.34;5036215;28;20211;-72
2023/07/28 06:36:09;;;;;;;9.00;6.10;;;;;;;19.10;66.59;95653.59;5041500;28;20469;-69
2023/07/28 06:38:34;;;;;;;8.33;5.47;;;;;;;19.11;66.59;95655.28;5045018;28;20201;-70
2023/07/28 06:41:00;;;;;;;15.07;5.57;;;;;;;19.06;67.10;95657.50;5040047;28;20218;-70
2023/07/28 06:43:26;;;;;;;17.87;6.60;;;;;;;19.04;67.15;95656.81;5042111;28;20227;-70
2023/07/28 06:45:54;;;;;;;7.20;5.23;;;;;;;19.22;66.63;95660.47;5042838;28;20207;-69
2023/07/28 06:48:19;;;;;;;7.80;5.53;;;;;;;19.25;66.75;95670.84;5038193;28;20437;-69
2023/07/28 06:50:44;;;;;;;13.30;5.97;;;;;;;19.24;66.85;95669.16;5037218;28;20475;-71
2023/07/28 06:53:10;;;;;;;9.17;6.00;;;;;;;19.37;66.51;95676.00;5037281;28;20186;-70
2023/07/28 06:55:38;;;;;;;8.13;5.87;;;;;;;19.33;66.98;95675.47;5036908;28;20375;-70
2023/07/28 06:58:04;;;;;;;12.60;6.10;;;;;;;19.31;67.25;95682.75;5045600;28;20175;-70
2023/07/28 07:00:30;;;;;;;9.53;5.10;;;;;;;19.41;66.77;95682.75;5041809;28;20532;-70
2023/07/28 07:02:55;;;;;;;7.40;5.80;;;;;;;19.46;67.10;95676.03;5043875;28;20275;-67
2023/07/28 07:05:20;;;;;;;7.83;6.27;;;;;;;19.51;67.12;95685.41;5044690;28;20206;-73
2023/07/28 07:07:46;;;;;;;12.20;5.30;;;;;;;19.60;66.80;95681.91;5046071;28;20166;-67
2023/07/28 07:10:12;;;;;;;7.07;5.80;;;;;;;19.67;66.74;95683.03;5048718;28;20189;-71
2023/07/28 07:12:37;;;;;;;8.23;6.27;;;;;;;19.55;67.89;95687.66;5035069;28;20277;-71
2023/07/28 07:15:03;;;;;;;9.40;6.30;;;;;;;19.54;68.32;95683.31;5041604;28;20191;-71
2023/07/28 07:17:29;;;;;;;9.43;6.50;;;;;;;19.43;69.73;95681.63;5042733;28;20179;-75
2023/07/28 07:19:54;;;;;;;10.27;6.00;;;;;;;19.42;69.28;95679.13;5043105;28;20432;-72
2023/07/28 07:22:20;;;;;;;7.63;5.70;;;;;;;19.52;69.50;95685.28;5032269;28;20231;-71
2023/07/28 07:24:45;;;;;;;9.40;5.40;;;;;;;19.41;69.79;95685.41;5037337;28;20192;-72
2023/07/28 07:27:10;;;;;;;9.30;5.53;;;;;;;19.40;69.91;95681.09;5039209;28;20174;-70
2023/07/28 07:29:38;;;;;;;7.30;5.93;;;;;;;19.50;70.66;95681.91;5039917;28;20262;-70
2023/07/28 07:32:04;;;;;;;6.63;5.27;;;;;;;19.66;70.26;95676.88;5035186;28;20163;-74
2023/07/28 07:34:30;;;;;;;6.43;5.13;;;;;;;19.77;69.67;95673.25;5038832;28;20453;-73
2023/07/28 07:36:56;;;;;;;10.60;5.23;;;;;;;19.79;69.46;95667.78;5036983;28;20428;-72
2023/07/28 07:39:22;;;;;;;8.93;5.30;;;;;;;19.81;69.49;95669.31;5038719;28;20578;-73
2023/07/28 07:41:47;;;;;;;13.23;5.83;;;;;;;19.77;69.51;95675.94;5040999;28;20461;-72
2023/07/28 07:44:12;;;;;;;12.67;6.60;;;;;;;19.80;70.41;95680.97;5039352;28;20184;-71
2023/07/28 07:46:38;;;;;;;10.33;5.50;;;;;;;19.91;70.22;95679.94;5035234;28;20182;-72
2023/07/28 07:49:05;;;;;;;6.27;5.67;;;;;;;19.84;70.01;95686.81;5041852;28;20171;-72
2023/07/28 07:51:31;;;;;;;8.07;5.20;;;;;;;19.81;69.69;95687.94;5037157;28;20496;-72
2023/07/28 07:53:56;;;;;;;6.40;5.27;;;;;;;19.84;69.29;95685.03;5042310;28;20422;-71
2023/07/28 07:56:22;;;;;;;7.83;6.00;;;;;;;19.86;69.60;95685.69;5037810;28;20328;-72
2023/07/28 07:58:47;;;;;;;8.10;5.40;;;;;;;19.84;69.99;95695.69;5040825;28;20225;-72
2023/07/28 08:01:12;;;;;;;6.70;5.77;;;;;;;19.88;69.69;95696.22;5040392;28;20257;-74
2023/07/28 08:03:39;;;;;;;6.50;5.03;;;;;;;19.92;69.80;95696.78;5044760;28;20186;-73
2023/07/28 08:06:04;;;;;;;7.50;5.87;;;;;;;19.99;69.65;95701.41;5028561;28;20233;-73
2023/07/28 08:08:30;;;;;;;6.20;5.67;;;;;;;20.16;69.40;95704.31;5028056;28;20430;-72
2023/07/28 08:10:56;;;;;;;7.93;5.37;;;;;;;20.23;68.92;95705.41;5049361;28;20638;-72
2023/07/28 08:13:21;;;;;;;6.57;5.60;;;;;;;20.23;69.03;95705.41;5041150;28;20429;-72
2023/07/28 08:15:47;;;;;;;9.17;4.90;;;;;;;20.36;68.23;95702.44;5044212;28;20999;-71
2023/07/28 08:18:13;;;;;;;16.87;5.90;;;;;;;20.45;68.49;95704.22;5039956;28;20182;-73
2023/07/28 08:20:39;;;;;;;12.80;6.23;;;;;;;20.74;67.52;95701.50;5046379;28;20236;-75
2023/07/28 08:23:04;;;;;;;15.23;6.17;;;;;;;21.01;66.79;95699.81;5057542;28;20489;-72
2023/07/28 08:25:30;;;;;;;9.80;5.80;;;;;;;21.26;65.58;95701.78;5047577;28;20201;-74
2023/07/28 08:27:55;;;;;;;8.20;5.83;;;;;;;21.34;65.35;95698.34;5048473;28;20190;-72
2023/07/28 08:30:20;;;;;;;8.20;5.77;;;;;;;21.38;65.44;95710.41;5048285;28;20253;-73
2023/07/28 08:32:46;;;;;;;9.20;5.27;;;;;;;21.39;65.44;95704.06;5042366;28;20256;-74
2023/07/28 08:35:12;;;;;;;9.17;5.50;;;;;;;21.46;65.10;95709.69;5049293;28;20199;-73
2023/07/28 08:37:37;;;;;;;7.40;5.30;;;;;;;21.35;64.76;95714.22;5044132;28;20241;-73
2023/07/28 08:40:04;;;;;;;6.67;5.67;;;;;;;21.32;64.87;95703.84;5035855;28;20239;-75
2023/07/28 08:42:35;;;;;;;8.30;4.90;;;;;;;21.34;64.42;95712.53;5038343;28;20275;-73
2023/07/28 08:45:01;;;;;;;7.30;4.70;;;;;;;21.40;64.25;95704.94;5042250;28;20499;-75
2023/07/28 08:47:27;;;;;;;10.00;5.67;;;;;;;21.48;64.35;95713.03;5052052;28;20504;-75
2023/07/28 08:49:52;;;;;;;8.47;4.80;;;;;;;21.50;64.28;95706.56;5038799;28;20426;-74
2023/07/28 08:52:18;;;;;;;7.60;4.40;;;;;;;21.50;63.94;95705.72;5048403;28;20560;-74
2023/07/28 08:54:43;;;;;;;11.17;4.87;;;;;;;21.57;63.46;95709.47;5041269;28;20223;-70
2023/07/28 08:57:10;;;;;;;14.27;5.40;;;;;;;21.44;63.96;95719.66;5042765;28;20167;-72
2023/07/28 08:59:36;;;;;;;9.63;5.17;;;;;;;21.50;63.28;95719.06;5036983;28;20168;-75
2023/07/28 09:02:01;;;;;;;12.60;4.97;;;;;;;21.50;63.69;95714.56;5044735;28;20453;-74
2023/07/28 09:04:28;;;;;;;10.47;5.90;;;;;;;21.59;62.93;95715.50;5039972;28;20445;-74
2023/07/28 09:06:53;;;;;;;17.23;6.13;;;;;;;21.74;62.42;95723.81;5033071;28;20271;-72
2023/07/28 09:09:22;;;;;;;12.07;6.00;;;;;;;21.87;61.67;95718.06;5041879;28;20521;-73
2023/07/28 09:11:50;;;;;;;9.30;4.90;;;;;;;22.03;61.16;95714.69;5034563;28;20188;-73
2023/07/28 09:14:17;;;;;;;12.10;4.77;;;;;;;22.28;60.67;95721.13;5035334;28;20841;-74
2023/07/28 09:16:43;;;;;;;5.77;5.23;;;;;;;22.39;60.24;95712.81;5031776;28;20450;-74
2023/07/28 09:19:09;;;;;;;10.30;4.77;;;;;;;22.35;59.64;95714.16;5039819;28;20422;-73
2023/07/28 09:21:36;;;;;;;8.63;4.00;;;;;;;22.50;59.25;95709.88;5038759;28;20977;-73
2023/07/28 09:24:06;;;;;;;6.40;4.77;;;;;;;22.61;59.38;95706.94;5031900;28;20414;-74
2023/07/28 09:26:45;;;;;;;7.33;4.10;;;;;;;22.67;58.98;95709.97;5035256;28;20476;-71
2023/07/28 09:29:15;;;;;;;16.37;4.13;;;;;;;22.78;58.53;95712.38;5032377;28;20406;-75
2023/07/28 09:31:42;;;;;;;11.30;4.77;;;;;;;22.90;58.23;95708.44;5045298;28;20525;-74
2023/07/28 09:34:08;;;;;;;7.37;4.20;;;;;;;23.00;57.41;95706.47;5050205;28;20417;-75
2023/07/28 09:36:34;;;;;;;9.87;3.67;;;;;;;22.90;56.96;95710.28;5053166;28;20512;-72
2023/07/28 09:39:02;;;;;;;4.50;3.50;;;;;;;22.72;57.04;95707.66;5054978;28;20408;-76
2023/07/28 09:41:30;;;;;;;8.77;3.90;;;;;;;22.83;57.29;95710.91;5050991;28;20526;-71
2023/07/28 09:43:56;;;;;;;10.27;5.10;;;;;;;22.93;57.39;95712.63;5042493;28;20472;-73
2023/07/28 09:46:22;;;;;;;6.90;5.13;;;;;;;22.92;56.60;95713.63;5030975;28;20434;-70
2023/07/28 09:48:52;;;;;;;9.20;3.93;;;;;;;22.95;56.28;95711.44;5029802;28;20414;-74
2023/07/28 09:51:21;;;;;;;13.53;6.03;;;;;;;23.19;55.62;95709.91;5030516;28;21200;-75
2023/07/28 09:53:52;;;;;;;7.13;4.20;;;;;;;23.16;55.41;95711.06;5029593;28;20406;-72
2023/07/28 09:56:20;;;;;;;4.63;3.60;;;;;;;23.09;55.38;95698.50;5030479;28;20437;-73
2023/07/28 09:58:51;;;;;;;7.50;4.30;;;;;;;23.58;54.37;95704.00;5030028;28;20429;-72
2023/07/28 10:01:17;;;;;;;7.50;3.90;;;;;;;23.62;54.13;95710.66;5047178;28;20448;-71
2023/07/28 10:03:43;;;;;;;3.60;3.10;;;;;;;23.57;53.81;95704.97;5049885;28;20420;-72
2023/07/28 10:06:09;;;;;;;4.30;3.67;;;;;;;23.44;54.35;95710.81;5049133;28;20486;-73
2023/07/28 10:08:35;;;;;;;6.80;3.77;;;;;;;23.70;53.31;95710.69;5034603;28;20441;-71
2023/07/28 10:11:02;;;;;;;8.23;3.97;;;;;;;23.72;53.24;95706.03;5048561;28;20405;-71
2023/07/28 10:13:28;;;;;;;19.10;5.10;;;;;;;23.74;53.85;95706.72;5048622;28;20471;-73
2023/07/28 10:15:53;;;;;;;21.00;5.70;;;;;;;23.81;53.18;95710.41;5040139;28;20440;-74
2023/07/28 10:18:22;;;;;;;6.43;4.40;;;;;;;23.91;53.25;95706.75;5039993;28;20264;-68
2023/07/28 10:20:49;;;;;;;6.10;3.83;;;;;;;23.91;53.60;95710.25;5040581;28;20266;-70
2023/07/28 10:23:17;;;;;;;11.70;5.77;;;;;;;23.87;53.71;95712.41;5037303;28;20449;-70
2023/07/28 10:25:44;;;;;;;11.47;4.00;;;;;;;23.83;53.46;95716.41;5045861;28;20809;-69
2023/07/28 10:28:31;;;;;;;10.00;3.90;;;;;;;23.84;53.43;95711.91;5039518;28;20416;-70
2023/07/28 10:30:57;;;;;;;7.47;4.83;;;;;;;23.85;52.95;95713.59;5035595;28;20415;-68
2023/07/28 10:33:34;;;;;;;6.50;4.50;;;;;;;23.81;53.31;95722.94;5031514;28;20418;-70
2023/07/28 10:36:31;;;;;;;12.23;3.83;;;;;;;23.82;52.14;95711.25;5041326;28;20959;-70
2023/07/28 10:39:12;;;;;;;16.33;4.57;;;;;;;23.84;52.46;95714.59;5042707;28;20421;-68
2023/07/28 10:41:38;;;;;;;4.90;3.67;;;;;;;23.83;52.64;95711.06;5047432;28;20543;-70
2023/07/28 10:44:03;;;;;;;11.00;4.40;;;;;;;23.87;52.21;95715.09;5033026;28;20502;-71
2023/07/28 10:46:29;;;;;;;5.23;3.80;;;;;;;23.91;52.21;95710.25;5029353;28;20175;-69
2023/07/28 10:48:54;;;;;;;10.83;4.10;;;;;;;23.95;52.23;95716.09;5034840;28;20179;-69
2023/07/28 10:51:25;;;;;;;8.73;4.70;;;;;;;23.98;52.67;95715.78;5041703;28;20170;-70
2023/07/28 10:53:57;;;;;;;11.53;4.57;;;;;;;23.93;52.26;95716.28;5038257;28;20289;-69
2023/07/28 10:56:23;;;;;;;5.13;3.97;;;;;;;23.99;51.76;95712.09;5034461;28;20751;-69
2023/07/28 10:58:59;;;;;;;3.27;2.97;;;;;;;24.02;51.42;95722.47;5042415;28;20508;-68
2023/07/28 11:01:33;;;;;;;15.77;4.10;;;;;;;24.01;51.51;95721.63;5043831;28;20551;-67
2023/07/28 11:04:08;;;;;;;4.87;3.77;;;;;;;23.88;51.19;95714.09;5034794;28;20508;-68
2023/07/28 11:06:34;;;;;;;4.83;3.70;;;;;;;23.91;51.43;95717.47;5029666;28;20421;-69
2023/07/28 11:08:59;;;;;;;10.43;4.07;;;;;;;23.83;51.78;95723.63;5037425;28;20416;-70
2023/07/28 11:11:25;;;;;;;5.27;4.13;;;;;;;23.83;51.60;95718.28;5034194;28;20198;-68
2023/07/28 11:13:51;;;;;;;5.93;3.40;;;;;;;23.88;51.67;95719.47;5047020;28;20189;-68
2023/07/28 11:16:17;;;;;;;9.00;3.83;;;;;;;23.97;51.62;95724.81;5032990;28;20928;-72
2023/07/28 11:18:42;;;;;;;4.97;3.97;;;;;;;23.97;51.91;95719.44;5042684;28;20286;-70
2023/07/28 11:21:08;;;;;;;11.37;4.33;;;;;;;24.17;51.45;95715.44;5047899;28;20540;-70
2023/07/28 11:23:33;;;;;;;5.00;4.13;;;;;;;24.21;51.54;95700.72;5045012;28;20172;-70
2023/07/28 11:25:59;;;;;;;4.60;3.30;;;;;;;24.30;51.54;95707.72;5037368;28;20215;-70